createdAt,value
2023-02-14T00:01:47.824Z,0.40
2023-02-14T00:04:17.615Z,0.50
2023-02-14T00:06:45.664Z,0.50
2023-02-14T00:09:16.642Z,0.50
2023-02-14T00:11:45.086Z,0.50
2023-02-14T00:14:31.909Z,0.50
2023-02-14T00:17:01.435Z,0.50
2023-02-14T00:19:29.570Z,0.50
2023-02-14T00:21:57.517Z,0.50
2023-02-14T00:24:27.410Z,0.50
2023-02-14T00:26:55.779Z,0.50
2023-02-14T00:29:27.184Z,0.50
2023-02-14T00:31:55.739Z,0.50
2023-02-14T00:34:26.713Z,0.50
2023-02-14T00:36:54.820Z,0.50
2023-02-14T00:39:22.987Z,0.50
2023-02-14T00:41:50.942Z,0.50
2023-02-14T00:44:19.417Z,0.50
2023-02-14T00:46:47.454Z,0.50
2023-02-14T00:49:16.020Z,0.50
2023-02-14T00:51:45.830Z,0.50
2023-02-14T00:54:13.786Z,0.50
2023-02-14T00:56:41.807Z,0.50
2023-02-14T00:59:11.225Z,0.50
2023-02-14T01:01:39.552Z,0.60
2023-02-14T01:04:08.037Z,0.60
2023-02-14T01:06:36.078Z,0.60
2023-02-14T01:09:05.796Z,0.60
2023-02-14T01:11:34.638Z,0.60
2023-02-14T01:14:02.597Z,0.50
2023-02-14T01:16:31.171Z,0.60
2023-02-14T01:19:01.097Z,0.60
2023-02-14T01:21:31.215Z,0.70
2023-02-14T01:24:01.766Z,0.70
2023-02-14T01:26:31.706Z,0.70
2023-02-14T01:29:02.820Z,0.70
2023-02-14T01:31:33.856Z,0.60
2023-02-14T01:34:02.960Z,0.70
2023-02-14T01:36:33.717Z,0.60
2023-02-14T01:39:04.418Z,0.60
2023-02-14T01:41:37.827Z,0.60
2023-02-14T01:44:07.907Z,0.50
2023-02-14T01:46:39.062Z,0.60
2023-02-14T01:49:11.543Z,0.60
2023-02-14T01:51:45.316Z,0.60
2023-02-14T01:54:14.310Z,0.60
2023-02-14T01:56:47.184Z,0.60
2023-02-14T01:59:18.155Z,0.60
2023-02-14T02:01:47.070Z,0.60
2023-02-14T02:04:18.928Z,0.60
2023-02-14T02:06:51.023Z,0.50
2023-02-14T02:09:23.943Z,0.50
2023-02-14T02:11:53.481Z,0.60
2023-02-14T02:14:24.436Z,0.60
2023-02-14T02:17:12.558Z,0.60
2023-02-14T02:20:23.129Z,0.60
2023-02-14T02:23:30.446Z,0.60
2023-02-14T02:26:20.261Z,0.50
2023-02-14T02:29:14.801Z,0.50
2023-02-14T02:32:12.236Z,0.60
2023-02-14T02:35:13.637Z,0.60
2023-02-14T02:37:50.112Z,0.60
2023-02-14T02:40:30.394Z,0.60
2023-02-14T02:43:12.321Z,0.60
2023-02-14T02:46:05.962Z,0.60
2023-02-14T02:48:41.531Z,0.60
2023-02-14T02:51:38.321Z,0.60
2023-02-14T02:54:14.741Z,0.60
2023-02-14T02:56:51.131Z,0.60
2023-02-14T02:59:23.157Z,0.60
2023-02-14T03:01:59.013Z,0.60
2023-02-14T03:04:46.162Z,0.60
2023-02-14T03:07:33.149Z,0.70
2023-02-14T03:10:03.610Z,0.60
2023-02-14T03:12:57.967Z,0.60
2023-02-14T03:15:40.482Z,0.60
2023-02-14T03:18:13.905Z,0.60
2023-02-14T03:20:49.769Z,0.70
2023-02-14T03:23:24.564Z,0.60
2023-02-14T03:26:03.557Z,0.60
2023-02-14T03:28:38.624Z,0.60
2023-02-14T03:31:13.710Z,0.60
2023-02-14T03:36:41.246Z,0.70
2023-02-14T03:39:16.707Z,0.70
2023-02-14T03:41:50.183Z,0.70
2023-02-14T03:44:22.648Z,0.70
2023-02-14T03:46:54.402Z,0.70
2023-02-14T03:49:27.110Z,0.70
2023-02-14T03:51:58.524Z,0.70
2023-02-14T03:54:29.642Z,0.70
2023-02-14T03:57:02.536Z,0.80
2023-02-14T03:59:30.974Z,0.80
2023-02-14T04:02:04.875Z,0.80
2023-02-14T04:04:36.782Z,0.80
2023-02-14T04:07:11.513Z,0.80
2023-02-14T04:09:41.192Z,0.80
2023-02-14T04:12:10.383Z,0.80
2023-02-14T04:14:38.491Z,0.80
2023-02-14T04:17:25.019Z,0.80
2023-02-14T04:19:53.022Z,0.80
2023-02-14T04:22:21.035Z,0.90
2023-02-14T04:24:50.703Z,0.90
2023-02-14T04:27:19.351Z,0.80
2023-02-14T04:29:50.221Z,0.80
2023-02-14T04:32:20.556Z,0.90
2023-02-14T04:34:49.825Z,0.80
2023-02-14T04:37:20.481Z,0.80
2023-02-14T04:39:49.812Z,0.80
2023-02-14T04:42:17.942Z,0.80
2023-02-14T04:44:46.498Z,0.90
2023-02-14T04:47:15.328Z,0.90
2023-02-14T04:49:45.001Z,0.90
2023-02-14T04:52:13.527Z,0.90
2023-02-14T04:54:42.471Z,0.90
2023-02-14T04:57:11.877Z,0.90
2023-02-14T04:59:39.798Z,0.90
2023-02-14T05:02:07.866Z,0.90
2023-02-14T05:04:38.457Z,0.90
2023-02-14T05:07:06.501Z,0.90
2023-02-14T05:09:34.466Z,0.90
2023-02-14T05:12:02.480Z,0.90
2023-02-14T05:14:33.299Z,0.90
2023-02-14T05:17:01.506Z,0.90
2023-02-14T05:19:29.837Z,0.90
2023-02-14T05:21:57.796Z,0.90
2023-02-14T05:24:27.584Z,0.90
2023-02-14T05:26:55.964Z,0.90
2023-02-14T05:29:24.335Z,0.90
2023-02-14T05:31:53.789Z,0.90
2023-02-14T05:34:21.955Z,0.90
2023-02-14T05:36:50.413Z,1.00
2023-02-14T05:39:18.348Z,0.90
2023-02-14T05:41:46.321Z,0.90
2023-02-14T05:44:14.490Z,1.00
2023-02-14T05:46:42.470Z,1.00
2023-02-14T05:49:11.742Z,1.00
2023-02-14T05:51:39.756Z,1.00
2023-02-14T05:54:09.401Z,1.00
2023-02-14T05:56:39.418Z,1.00
2023-02-14T05:59:07.463Z,1.00
2023-02-14T06:01:35.478Z,1.00
2023-02-14T06:04:03.451Z,1.00
2023-02-14T06:06:34.172Z,1.00
2023-02-14T06:09:03.923Z,1.00
2023-02-14T06:11:31.906Z,1.00
2023-02-14T06:13:59.874Z,1.00
2023-02-14T06:16:27.897Z,1.00
2023-02-14T06:18:56.033Z,1.00
2023-02-14T06:21:25.830Z,1.00
2023-02-14T06:23:55.215Z,1.10
2023-02-14T06:26:23.236Z,1.10
2023-02-14T06:28:54.415Z,1.10
2023-02-14T06:31:26.898Z,1.10
2023-02-14T06:33:56.270Z,1.10
2023-02-14T06:36:24.947Z,1.10
2023-02-14T06:38:53.186Z,1.10
2023-02-14T06:41:22.947Z,1.10
2023-02-14T06:43:50.874Z,1.10
2023-02-14T06:46:19.595Z,1.10
2023-02-14T06:48:49.792Z,1.10
2023-02-14T06:51:18.128Z,1.10
2023-02-14T06:53:48.336Z,1.10
2023-02-14T06:56:17.330Z,1.20
2023-02-14T06:58:46.684Z,1.20
2023-02-14T07:01:14.858Z,1.20
2023-02-14T07:03:43.378Z,1.20
2023-02-14T07:06:11.362Z,1.20
2023-02-14T07:08:39.366Z,1.20
2023-02-14T07:11:08.051Z,1.10
2023-02-14T07:13:36.531Z,1.10
2023-02-14T07:16:06.285Z,1.20
2023-02-14T07:18:34.365Z,1.20
2023-02-14T07:21:02.726Z,1.20
2023-02-14T07:23:31.471Z,1.20
2023-02-14T07:26:00.268Z,1.10
2023-02-14T07:28:31.025Z,1.20
2023-02-14T07:31:02.233Z,1.20
2023-02-14T07:33:31.820Z,1.20
2023-02-14T07:35:59.768Z,1.20
2023-02-14T07:38:30.492Z,1.20
2023-02-14T07:40:58.829Z,1.20
2023-02-14T07:43:27.613Z,1.20
2023-02-14T07:45:55.835Z,1.20
2023-02-14T07:48:25.179Z,1.20
2023-02-14T07:50:57.042Z,1.20
2023-02-14T07:53:25.549Z,1.20
2023-02-14T07:55:53.566Z,1.20
2023-02-14T07:58:21.742Z,1.20
2023-02-14T08:00:51.159Z,1.20
2023-02-14T08:03:19.366Z,1.30
2023-02-14T08:05:57.262Z,1.30
2023-02-14T08:08:28.991Z,1.20
2023-02-14T08:10:57.140Z,1.30
2023-02-14T08:13:25.237Z,1.30
2023-02-14T08:16:05.765Z,1.30
2023-02-14T08:18:37.649Z,1.20
2023-02-14T08:21:08.010Z,1.30
2023-02-14T08:23:38.065Z,1.30
2023-02-14T08:26:06.499Z,1.30
2023-02-14T08:28:34.961Z,1.30
2023-02-14T08:31:04.186Z,1.30
2023-02-14T08:33:32.824Z,1.30
2023-02-14T08:36:01.225Z,1.30
2023-02-14T08:38:29.545Z,1.30
2023-02-14T08:41:05.195Z,1.40
2023-02-14T08:43:35.559Z,1.30
2023-02-14T08:46:03.850Z,1.30
2023-02-14T08:48:31.889Z,1.40
2023-02-14T08:51:00.192Z,1.30
2023-02-14T08:53:28.494Z,1.40
2023-02-14T08:55:56.780Z,1.40
2023-02-14T08:58:26.114Z,1.50
2023-02-14T09:00:55.697Z,1.50
2023-02-14T09:03:23.865Z,1.50
2023-02-14T09:05:51.889Z,1.50
2023-02-14T09:08:19.957Z,1.50
2023-02-14T09:10:48.148Z,1.60
2023-02-14T09:13:16.553Z,1.60
2023-02-14T09:15:45.850Z,1.60
2023-02-14T09:18:14.188Z,1.70
2023-02-14T09:20:44.299Z,1.70
2023-02-14T09:23:12.263Z,1.70
2023-02-14T09:25:41.103Z,1.70
2023-02-14T09:28:09.074Z,1.70
2023-02-14T09:30:37.067Z,1.70
2023-02-14T09:33:06.882Z,1.80
2023-02-14T09:35:52.230Z,1.80
2023-02-14T09:38:20.312Z,1.90
2023-02-14T09:40:50.386Z,1.80
2023-02-14T09:43:25.606Z,1.80
2023-02-14T09:45:57.657Z,1.70
2023-02-14T09:48:33.396Z,1.70
2023-02-14T09:51:06.485Z,1.70
2023-02-14T09:53:36.585Z,1.80
2023-02-14T09:56:13.041Z,1.80
2023-02-14T09:58:50.810Z,1.90
2023-02-14T10:01:24.838Z,1.90
2023-02-14T10:04:19.008Z,1.90
2023-02-14T10:06:51.480Z,2.00
2023-02-14T10:09:50.714Z,2.00
2023-02-14T10:12:24.343Z,2.00
2023-02-14T10:14:55.450Z,2.10
2023-02-14T10:17:31.881Z,2.00
2023-02-14T10:20:03.894Z,2.10
2023-02-14T10:22:41.181Z,2.10
2023-02-14T10:25:16.760Z,2.10
2023-02-14T10:27:47.387Z,2.10
2023-02-14T10:30:18.531Z,2.10
2023-02-14T10:32:49.202Z,2.10
2023-02-14T10:35:30.850Z,2.10
2023-02-14T10:38:11.177Z,2.00
2023-02-14T10:40:59.548Z,2.10
2023-02-14T10:43:38.095Z,2.00
2023-02-14T10:46:17.050Z,2.10
2023-02-14T10:48:54.712Z,2.20
2023-02-14T10:51:33.867Z,2.20
2023-02-14T10:54:17.506Z,2.30
2023-02-14T10:56:51.303Z,2.20
2023-02-14T10:59:25.008Z,2.20
2023-02-14T11:01:55.175Z,2.30
2023-02-14T11:04:24.728Z,2.40
2023-02-14T11:06:54.729Z,2.20
2023-02-14T11:09:22.882Z,2.30
2023-02-14T11:11:54.321Z,2.30
2023-02-14T11:14:26.098Z,2.40
2023-02-14T11:16:55.485Z,2.40
2023-02-14T11:19:26.991Z,2.40
2023-02-14T11:21:58.065Z,2.50
2023-02-14T11:24:31.609Z,2.50
2023-02-14T11:27:02.177Z,2.50
2023-02-14T11:29:32.218Z,2.60
2023-02-14T11:32:09.750Z,2.60
2023-02-14T11:34:40.934Z,2.50
2023-02-14T11:37:27.019Z,2.60
2023-02-14T11:39:56.275Z,2.60
2023-02-14T11:42:42.045Z,2.70
2023-02-14T11:45:29.773Z,2.70
2023-02-14T11:48:11.011Z,2.70
2023-02-14T11:50:40.674Z,2.70
2023-02-14T11:53:13.007Z,2.70
2023-02-14T11:55:41.818Z,2.70
2023-02-14T11:58:28.822Z,2.80
2023-02-14T12:00:56.839Z,2.80
2023-02-14T12:03:26.520Z,2.80
2023-02-14T12:06:00.395Z,2.80
2023-02-14T12:08:32.575Z,2.70
2023-02-14T12:11:05.429Z,2.80
2023-02-14T12:13:33.708Z,2.80
2023-02-14T12:16:03.717Z,2.80
2023-02-14T12:18:39.960Z,2.80
2023-02-14T12:21:32.600Z,2.80
2023-02-14T12:24:07.732Z,2.80
2023-02-14T12:26:42.046Z,2.70
2023-02-14T12:29:19.025Z,2.70
2023-02-14T12:31:49.088Z,2.60
2023-02-14T12:34:19.595Z,2.70
2023-02-14T12:37:13.366Z,2.70
2023-02-14T12:39:56.590Z,2.80
2023-02-14T12:42:41.207Z,2.80
2023-02-14T12:45:19.301Z,2.90
2023-02-14T12:47:55.500Z,2.80
2023-02-14T12:50:35.155Z,2.80
2023-02-14T12:53:34.690Z,2.80
2023-02-14T12:56:13.324Z,2.70
2023-02-14T12:58:49.845Z,2.70
2023-02-14T13:01:53.951Z,2.80
2023-02-14T13:05:03.444Z,2.80
2023-02-14T13:07:46.783Z,2.80
2023-02-14T13:10:24.943Z,2.80
2023-02-14T13:13:03.085Z,2.80
2023-02-14T13:15:36.984Z,2.70
2023-02-14T13:18:15.793Z,2.60
2023-02-14T13:20:55.536Z,2.60
2023-02-14T13:23:28.666Z,2.60
2023-02-14T13:26:02.437Z,2.70
2023-02-14T13:28:33.116Z,2.80
2023-02-14T13:31:02.300Z,2.80
2023-02-14T13:33:35.288Z,2.70
2023-02-14T13:36:07.706Z,2.70
2023-02-14T13:38:40.170Z,2.80
2023-02-14T13:41:10.156Z,2.70
2023-02-14T13:43:52.066Z,2.70
2023-02-14T13:46:22.576Z,2.70
2023-02-14T13:48:59.534Z,2.70
2023-02-14T13:51:44.880Z,2.70
2023-02-14T13:54:23.126Z,2.70
2023-02-14T13:56:51.912Z,2.70
2023-02-14T13:59:31.371Z,2.80
2023-02-14T14:02:31.851Z,2.70
2023-02-14T14:05:00.290Z,2.80
2023-02-14T14:07:32.185Z,2.80
2023-02-14T14:10:02.821Z,2.80
2023-02-14T14:12:41.079Z,2.80
2023-02-14T14:15:19.072Z,2.80
2023-02-14T14:17:51.112Z,2.70
2023-02-14T14:20:40.511Z,2.70
2023-02-14T14:23:34.010Z,2.70
2023-02-14T14:26:03.691Z,2.70
2023-02-14T14:28:34.026Z,2.70
2023-02-14T14:31:04.050Z,2.80
2023-02-14T14:33:34.914Z,2.70
2023-02-14T14:36:08.035Z,2.70
2023-02-14T14:38:48.402Z,2.70
2023-02-14T14:41:16.591Z,2.70
2023-02-14T14:43:45.102Z,2.70
2023-02-14T14:46:16.807Z,2.80
2023-02-14T14:48:46.610Z,2.70
2023-02-14T14:51:23.564Z,2.70
2023-02-14T14:53:55.486Z,2.70
2023-02-14T14:56:26.563Z,2.60
2023-02-14T14:58:55.210Z,2.60
2023-02-14T15:01:38.178Z,2.60
2023-02-14T15:04:12.335Z,2.60
2023-02-14T15:06:40.968Z,2.60
2023-02-14T15:09:21.855Z,2.50
2023-02-14T15:12:13.661Z,2.50
2023-02-14T15:14:44.887Z,2.50
2023-02-14T15:17:20.563Z,2.50
2023-02-14T15:19:54.007Z,2.50
2023-02-14T15:22:26.554Z,2.50
2023-02-14T15:24:54.694Z,2.50
2023-02-14T15:27:28.066Z,2.40
2023-02-14T15:29:57.927Z,2.40
2023-02-14T15:32:31.866Z,2.40
2023-02-14T15:35:02.024Z,2.30
2023-02-14T15:37:31.057Z,2.20
2023-02-14T15:39:59.860Z,2.20
2023-02-14T15:42:31.642Z,2.10
2023-02-14T15:45:16.343Z,2.00
2023-02-14T15:47:48.807Z,2.00
2023-02-14T15:50:19.001Z,2.00
2023-02-14T15:52:49.128Z,2.00
2023-02-14T15:55:20.479Z,1.90
2023-02-14T15:57:55.736Z,1.80
2023-02-14T16:00:26.740Z,1.80
2023-02-14T16:03:00.848Z,1.70
2023-02-14T16:05:28.938Z,1.90
2023-02-14T16:08:03.568Z,1.80
2023-02-14T16:10:34.369Z,1.80
2023-02-14T16:13:05.388Z,1.80
2023-02-14T16:15:34.999Z,1.80
2023-02-14T16:18:17.634Z,1.90
2023-02-14T16:20:47.008Z,1.80
2023-02-14T16:23:18.153Z,1.80
2023-02-14T16:25:46.713Z,1.80
2023-02-14T16:28:15.116Z,1.70
2023-02-14T16:30:45.140Z,1.80
2023-02-14T16:33:21.123Z,1.80
2023-02-14T16:35:50.023Z,1.80
2023-02-14T16:38:20.161Z,1.80
2023-02-14T16:40:50.956Z,1.80
2023-02-14T16:43:21.162Z,1.80
2023-02-14T16:45:50.090Z,1.80
2023-02-14T16:48:39.117Z,1.80
2023-02-14T16:51:08.200Z,1.80
2023-02-14T16:53:38.596Z,1.90
2023-02-14T16:56:07.700Z,1.80
2023-02-14T16:58:38.958Z,1.80
2023-02-14T17:01:07.684Z,1.80
2023-02-14T17:03:36.101Z,1.80
2023-02-14T17:06:08.332Z,1.80
2023-02-14T17:08:38.012Z,1.80
2023-02-14T17:11:06.637Z,1.80
2023-02-14T17:13:39.877Z,1.80
2023-02-14T17:16:12.031Z,1.80
2023-02-14T17:18:42.085Z,1.80
2023-02-14T17:21:11.699Z,1.70
2023-02-14T17:23:40.136Z,1.80
2023-02-14T17:26:08.265Z,1.70
2023-02-14T17:28:36.860Z,1.70
2023-02-14T17:31:05.201Z,1.70
2023-02-14T17:33:37.256Z,1.60
2023-02-14T17:36:06.674Z,1.60
2023-02-14T17:38:36.411Z,1.60
2023-02-14T17:41:14.094Z,1.60
2023-02-14T17:43:42.864Z,1.60
2023-02-14T17:46:11.196Z,1.60
2023-02-14T17:48:39.399Z,1.60
2023-02-14T17:51:08.389Z,1.60
2023-02-14T17:53:37.935Z,1.50
2023-02-14T17:56:11.151Z,1.50
2023-02-14T17:58:39.588Z,1.50
2023-02-14T18:01:09.484Z,1.50
2023-02-14T18:03:38.402Z,1.50
2023-02-14T18:06:07.394Z,1.50
2023-02-14T18:08:38.941Z,1.40
2023-02-14T18:11:08.144Z,1.40
2023-02-14T18:13:36.955Z,1.40
2023-02-14T18:16:10.505Z,1.30
2023-02-14T18:18:39.728Z,1.40
2023-02-14T18:21:34.530Z,1.30
2023-02-14T18:24:05.094Z,1.20
2023-02-14T18:26:34.477Z,1.20
2023-02-14T18:29:06.415Z,1.20
2023-02-14T18:31:37.762Z,1.20
2023-02-14T18:34:06.655Z,1.20
2023-02-14T18:36:37.428Z,1.20
2023-02-14T18:39:08.459Z,1.20
2023-02-14T18:41:36.552Z,1.20
2023-02-14T18:44:05.643Z,1.20
2023-02-14T18:46:36.268Z,1.20
2023-02-14T18:49:07.135Z,1.20
2023-02-14T18:51:37.267Z,1.20
2023-02-14T18:54:08.229Z,1.20
2023-02-14T18:56:37.764Z,1.20
2023-02-14T18:59:08.271Z,1.10
2023-02-14T19:01:38.463Z,1.10
2023-02-14T19:04:09.237Z,1.10
2023-02-14T19:06:39.358Z,1.20
2023-02-14T19:09:11.742Z,1.10
2023-02-14T19:11:40.450Z,1.10
2023-02-14T19:14:10.470Z,1.10
2023-02-14T19:19:31.957Z,1.10
2023-02-14T19:22:00.644Z,1.10
2023-02-14T19:24:30.326Z,1.10
2023-02-14T19:26:58.948Z,1.10
2023-02-14T19:29:27.109Z,1.10
2023-02-14T19:31:55.958Z,1.10
2023-02-14T19:34:28.879Z,1.00
2023-02-14T19:37:00.336Z,1.00
2023-02-14T19:39:30.741Z,1.00
2023-02-14T19:42:00.890Z,1.00
2023-02-14T19:44:31.011Z,1.00
2023-02-14T19:47:04.044Z,1.00
2023-02-14T19:49:34.669Z,1.00
2023-02-14T19:52:06.276Z,1.00
2023-02-14T19:54:40.605Z,1.00
2023-02-14T19:57:08.743Z,1.00
2023-02-14T19:59:38.062Z,1.00
2023-02-14T20:02:06.114Z,1.00
2023-02-14T20:04:34.786Z,0.90
2023-02-14T20:07:02.866Z,0.80
2023-02-14T20:09:30.806Z,0.90
2023-02-14T20:12:01.282Z,0.90
2023-02-14T20:14:38.436Z,0.80
2023-02-14T20:17:17.531Z,0.80
2023-02-14T20:19:46.619Z,0.80
2023-02-14T20:22:14.696Z,0.80
2023-02-14T20:24:42.660Z,0.80
2023-02-14T20:27:13.814Z,0.80
2023-02-14T20:29:43.254Z,0.80
2023-02-14T20:32:12.438Z,0.80
2023-02-14T20:34:40.819Z,0.90
2023-02-14T20:37:11.021Z,0.90
2023-02-14T20:39:39.476Z,0.90
2023-02-14T20:42:08.613Z,0.90
2023-02-14T20:44:38.404Z,0.90
2023-02-14T20:47:06.750Z,0.90
2023-02-14T20:49:35.769Z,0.90
2023-02-14T20:52:04.928Z,0.80
2023-02-14T20:54:33.651Z,0.90
2023-02-14T20:57:01.741Z,0.90
2023-02-14T20:59:30.103Z,0.90
2023-02-14T21:02:00.235Z,0.90
2023-02-14T21:04:29.559Z,0.80
2023-02-14T21:07:00.897Z,0.80
2023-02-14T21:09:28.928Z,0.90
2023-02-14T21:11:58.302Z,0.90
2023-02-14T21:14:26.435Z,0.90
2023-02-14T21:16:55.320Z,0.90
2023-02-14T21:19:26.703Z,0.80
2023-02-14T21:21:54.793Z,0.80
2023-02-14T21:24:22.953Z,0.90
2023-02-14T21:26:52.013Z,0.90
2023-02-14T21:29:20.614Z,0.90
2023-02-14T21:31:49.681Z,0.90
2023-02-14T21:34:18.181Z,0.80
2023-02-14T21:36:47.474Z,0.80
2023-02-14T21:39:15.695Z,0.80
2023-02-14T21:41:43.626Z,0.90
2023-02-14T21:44:32.724Z,0.90
2023-02-14T21:47:00.880Z,0.80
2023-02-14T21:49:46.342Z,0.90
2023-02-14T21:52:15.625Z,0.90
2023-02-14T21:54:43.927Z,0.80
2023-02-14T21:57:12.884Z,0.70
2023-02-14T21:59:41.046Z,0.70
2023-02-14T22:02:09.573Z,0.70
2023-02-14T22:04:38.119Z,0.70
2023-02-14T22:07:06.235Z,0.60
2023-02-14T22:09:37.229Z,0.60
2023-02-14T22:12:05.586Z,0.50
2023-02-14T22:14:33.542Z,0.50
2023-02-14T22:17:01.949Z,0.60
2023-02-14T22:19:30.138Z,0.60
2023-02-14T22:21:58.064Z,0.60
2023-02-14T22:24:26.573Z,0.60
2023-02-14T22:26:56.002Z,0.50
2023-02-14T22:29:24.591Z,0.60
2023-02-14T22:31:53.697Z,0.60
2023-02-14T22:34:21.679Z,0.60
2023-02-14T22:36:49.885Z,0.50
2023-02-14T22:39:18.417Z,0.50
2023-02-14T22:41:47.590Z,0.30
2023-02-14T22:44:17.078Z,0.40
2023-02-14T22:46:45.352Z,0.50
2023-02-14T22:49:13.268Z,0.40
2023-02-14T22:51:43.354Z,0.50
2023-02-14T22:54:17.251Z,0.50
2023-02-14T22:56:47.216Z,0.50
2023-02-14T22:59:18.274Z,0.50
2023-02-14T23:01:46.980Z,0.40
2023-02-14T23:04:17.153Z,0.40
2023-02-14T23:06:46.020Z,0.40
2023-02-14T23:09:15.493Z,0.40
2023-02-14T23:11:46.006Z,0.40
2023-02-14T23:14:34.214Z,0.30
2023-02-14T23:17:19.852Z,0.30
2023-02-14T23:20:06.367Z,0.30
2023-02-14T23:22:37.219Z,0.30
2023-02-14T23:25:08.251Z,0.30
2023-02-14T23:27:38.480Z,0.30
2023-02-14T23:30:10.428Z,0.40
2023-02-14T23:32:38.593Z,0.40
2023-02-14T23:35:07.403Z,0.40
2023-02-14T23:37:35.502Z,0.40
2023-02-14T23:40:04.691Z,0.40
2023-02-14T23:42:33.425Z,0.50
2023-02-14T23:45:15.327Z,0.50
2023-02-14T23:47:44.795Z,0.50
2023-02-14T23:50:13.530Z,0.40
2023-02-14T23:52:42.715Z,0.40
2023-02-14T23:55:11.145Z,0.40
2023-02-14T23:57:39.514Z,0.30
